Clementon, New Jersey
Current Conditions -  °F | °C
As of 9:27 AM on Monday 26 Jan 2015 (Local Time) from KVAY Reporting Station
Light Snow Light Snow  
Wind Chill: 17°   Ceiling: 1300
Heat Index: 27°   Visibility: 1mi
Dew Point: 23°   Wind: 10mph
Humidity: 85%   Direction: 40°NE
Pressure: 29.91"   Gusts: 20mph
Location:  39.81°N, 74.99°W
Report Text: KVAY 261427Z AUTO 04009G17KT 1SM -SN BR OVC013 M03/M05 A2991 RMK AO2 P0000 T10281050
Loading
Personal Weather Stations






























Interactive Weather Map New forecast layout! Learn more

10-Day Weather Forecast

Advertisements
Track Severe Weather on mobile